Time;durP1;ratioP1;P1;durP2;ratioP2;P2;SDS_P1;SDS_P2;PMS_P1;PMS_P2;Temp;Humidity;BMP_temperature;BMP_pressure;BME280_temperature;BME280_humidity;BME280_pressure;Samples;Min_cycle;Max_cycle;Signal;HPM_P1;HPM_P2
2023/11/12 00:02:38;;;;;;;17.80;14.70;;;;;;;5.30;95.91;99072.58;136760;1279;22269;-81
2023/11/12 00:05:39;;;;;;;18.50;13.00;;;;;;;5.30;95.88;99073.45;136566;1279;22540;-78
2023/11/12 00:08:39;;;;;;;16.40;12.10;;;;;;;5.30;95.80;99073.95;136786;1277;22466;-78
2023/11/12 00:11:42;;;;;;;17.20;12.80;;;;;;;5.30;95.72;99079.73;136578;1279;22424;-77
2023/11/12 00:14:49;;;;;;;20.70;13.50;;;;;;;5.30;96.02;99078.37;136761;1279;22548;-77
2023/11/12 00:17:49;;;;;;;32.90;21.50;;;;;;;5.30;96.15;99080.12;136767;1279;22393;-77
2023/11/12 00:20:51;;;;;;;34.30;22.90;;;;;;;5.29;95.76;99084.71;136775;1279;22316;-79
2023/11/12 00:23:52;;;;;;;26.40;18.40;;;;;;;5.28;95.86;99079.91;136773;1279;22417;-77
2023/11/12 00:26:52;;;;;;;21.00;13.80;;;;;;;5.28;96.09;99083.13;136772;1280;22465;-82
2023/11/12 00:29:53;;;;;;;18.60;13.60;;;;;;;5.27;96.10;99082.34;136774;1279;22455;-78
2023/11/12 00:32:54;;;;;;;21.90;15.40;;;;;;;5.25;96.15;99086.21;136798;1279;23593;-82
2023/11/12 00:35:59;;;;;;;27.30;19.40;;;;;;;5.25;95.92;99085.00;136630;1264;22372;-78
2023/11/12 00:39:04;;;;;;;15.50;11.40;;;;;;;5.23;96.38;99091.34;136770;1279;22379;-79
2023/11/12 00:42:06;;;;;;;17.00;12.80;;;;;;;5.22;96.22;99089.91;136819;1279;22398;-78
2023/11/12 00:45:08;;;;;;;14.70;11.80;;;;;;;5.22;96.12;99094.48;136785;1280;23465;-76
2023/11/12 00:48:09;;;;;;;15.30;11.10;;;;;;;5.23;96.22;99092.44;136796;1279;22453;-80
2023/11/12 00:51:10;;;;;;;13.60;10.30;;;;;;;5.23;96.32;99092.09;136793;1279;23264;-78
2023/11/12 00:54:11;;;;;;;11.60;9.60;;;;;;;5.23;96.12;99094.04;136799;1279;22508;-76
2023/11/12 00:57:15;;;;;;;15.70;10.60;;;;;;;5.22;96.49;99094.48;136786;1279;22411;-76
2023/11/12 01:00:16;;;;;;;26.50;19.30;;;;;;;5.22;96.27;99095.86;136789;1279;22455;-79
2023/11/12 01:03:17;;;;;;;10.90;9.00;;;;;;;5.23;96.29;99101.76;136784;1279;23139;-76
2023/11/12 01:06:18;;;;;;;;;;;;;;;5.21;96.19;99102.61;136787;1280;22410;-78
2023/11/12 01:09:18;;;;;;;14.50;10.10;;;;;;;5.22;96.50;99101.82;136782;1276;22481;-82
2023/11/12 01:12:23;;;;;;;12.30;10.00;;;;;;;5.22;96.37;99100.63;136788;1279;22446;-78
2023/11/12 01:15:23;;;;;;;15.00;11.00;;;;;;;5.21;96.17;99102.61;136572;1279;22442;-76
2023/11/12 01:18:32;;;;;;;19.20;13.00;;;;;;;5.21;96.33;99104.90;136593;1279;23381;-77
2023/11/12 01:21:33;;;;;;;14.50;10.60;;;;;;;5.20;96.35;99108.55;136800;1279;22378;-78
2023/11/12 01:24:34;;;;;;;16.90;10.90;;;;;;;5.19;96.31;99104.23;136784;1279;22408;-78
2023/11/12 01:27:35;;;;;;;15.50;11.20;;;;;;;5.18;96.37;99104.63;136790;1279;22369;-76
2023/11/12 01:30:35;;;;;;;;;;;;;;;5.15;96.48;99106.35;136595;1279;23158;-77
2023/11/12 01:33:36;;;;;;;13.00;9.60;;;;;;;5.14;96.14;99104.37;136790;1279;23252;-76
2023/11/12 01:36:37;;;;;;;9.80;7.90;;;;;;;5.13;96.36;99104.23;136627;1279;22465;-77
2023/11/12 01:39:38;;;;;;;16.00;12.40;;;;;;;5.11;96.35;99104.00;136761;1276;22376;-77
2023/11/12 01:42:39;;;;;;;16.10;10.50;;;;;;;5.10;96.32;99102.75;136620;1279;22422;-78
2023/11/12 01:45:39;;;;;;;14.40;9.50;;;;;;;5.08;96.18;99102.34;136605;1279;22447;-76
2023/11/12 01:48:40;;;;;;;24.00;14.20;;;;;;;5.06;96.29;99102.42;136596;1279;22483;-78
2023/11/12 01:51:41;;;;;;;31.70;19.60;;;;;;;5.02;96.23;99100.83;136777;1279;22445;-77
2023/11/12 01:54:44;;;;;;;19.80;12.20;;;;;;;5.02;96.15;99104.80;136749;1279;22442;-76
2023/11/12 01:57:52;;;;;;;13.20;9.20;;;;;;;5.01;96.32;99106.23;136612;1280;22388;-77
2023/11/12 02:00:55;;;;;;;13.10;9.00;;;;;;;5.00;96.30;99106.64;136596;1279;22255;-81
2023/11/12 02:03:58;;;;;;;;;;;;;;;5.00;96.32;99106.89;136787;1279;22488;-76
2023/11/12 02:06:59;;;;;;;29.50;16.00;;;;;;;5.00;96.19;99105.88;136634;1279;22415;-78
2023/11/12 02:10:09;;;;;;;14.70;10.50;;;;;;;4.98;96.25;99107.38;136694;1279;22432;-77
2023/11/12 02:13:10;;;;;;;25.50;14.60;;;;;;;4.97;96.06;99106.98;136778;1280;22484;-77
2023/11/12 02:16:11;;;;;;;20.60;12.60;;;;;;;4.97;96.27;99110.55;136616;1279;22453;-76
2023/11/12 02:19:27;;;;;;;30.10;16.40;;;;;;;4.94;96.38;99109.05;136812;1276;22443;-77
2023/11/12 02:22:28;;;;;;;18.30;12.40;;;;;;;4.93;96.28;99110.84;136697;1279;22243;-79
2023/11/12 02:25:28;;;;;;;25.10;14.20;;;;;;;4.95;96.33;99112.61;136590;1279;22486;-78
2023/11/12 02:28:31;;;;;;;16.50;12.40;;;;;;;4.96;96.40;99112.89;136770;1279;22503;-78
2023/11/12 02:31:34;;;;;;;15.30;11.30;;;;;;;4.97;96.25;99117.92;136618;1279;22248;-78
2023/11/12 02:34:35;;;;;;;12.60;10.30;;;;;;;4.98;96.24;99111.50;136747;1280;22442;-78
2023/11/12 02:37:36;;;;;;;13.80;11.20;;;;;;;4.99;96.47;99117.54;136560;1279;22381;-77
2023/11/12 02:40:39;;;;;;;18.80;13.90;;;;;;;4.99;96.30;99117.11;136618;1280;22368;-76
2023/11/12 02:43:41;;;;;;;17.90;12.90;;;;;;;5.00;96.59;99116.81;136767;1279;22434;-74
2023/11/12 02:46:44;;;;;;;15.00;11.60;;;;;;;5.01;96.57;99114.68;136750;1279;23261;-75
2023/11/12 02:50:25;;;;;;;12.80;10.20;;;;;;;5.02;96.27;99117.19;136752;1279;22440;-75
2023/11/12 02:53:25;;;;;;;17.20;13.20;;;;;;;5.00;96.00;99118.39;136755;1279;22403;-76
2023/11/12 02:56:26;;;;;;;14.70;12.90;;;;;;;5.00;96.22;99122.33;136742;1279;22403;-73
2023/11/12 02:59:26;;;;;;;13.60;12.20;;;;;;;4.99;96.55;99121.02;136765;1279;22454;-77
2023/11/12 03:02:27;;;;;;;14.90;13.10;;;;;;;4.97;96.45;99124.39;136669;1279;22419;-75
2023/11/12 03:05:36;;;;;;;14.40;10.40;;;;;;;4.97;96.42;99129.85;136697;1279;22434;-76
2023/11/12 03:08:44;;;;;;;12.80;11.20;;;;;;;4.96;96.35;99133.06;136612;1280;22475;-78
2023/11/12 03:11:46;;;;;;;14.70;11.10;;;;;;;4.93;96.36;99137.13;136606;1277;22439;-76
2023/11/12 03:14:47;;;;;;;12.00;10.10;;;;;;;4.92;96.22;99143.36;136739;1279;22240;-77
2023/11/12 03:17:48;;;;;;;13.20;9.90;;;;;;;4.91;96.21;99147.33;136734;1279;22370;-75
2023/11/12 03:20:48;;;;;;;;;;;;;;;4.90;96.30;99143.10;136773;1279;22430;-74
2023/11/12 03:23:55;;;;;;;12.00;10.20;;;;;;;4.90;96.20;99140.94;136620;1279;22453;-75
2023/11/12 03:26:56;;;;;;;12.10;10.30;;;;;;;4.89;96.31;99146.16;136691;1280;23097;-74
2023/11/12 03:29:56;;;;;;;12.60;10.60;;;;;;;4.87;96.42;99145.59;136755;1279;23592;-75
2023/11/12 03:33:04;;;;;;;18.00;11.30;;;;;;;4.88;96.50;99148.18;136762;1279;22423;-75
2023/11/12 03:36:08;;;;;;;12.70;10.30;;;;;;;4.88;96.50;99148.18;136741;1280;23420;-75
2023/11/12 03:39:11;;;;;;;14.10;11.60;;;;;;;4.88;96.65;99151.17;136770;1279;22501;-74
2023/11/12 03:42:18;;;;;;;13.30;11.00;;;;;;;4.89;96.44;99151.45;136762;1279;22508;-75
2023/11/12 03:45:19;;;;;;;12.90;10.30;;;;;;;4.89;96.50;99152.92;136744;1280;22389;-74
2023/11/12 03:48:19;;;;;;;;;;;;;;;4.92;96.39;99151.49;136744;1279;22502;-78
2023/11/12 03:51:20;;;;;;;16.10;9.90;;;;;;;4.91;96.58;99151.53;136622;1279;22458;-75
2023/11/12 03:54:20;;;;;;;12.40;10.10;;;;;;;4.91;96.34;99150.15;136612;1280;22447;-74
2023/11/12 03:57:21;;;;;;;11.00;9.50;;;;;;;4.92;96.16;99154.09;136619;1279;23161;-74
2023/11/12 04:00:24;;;;;;;12.50;9.00;;;;;;;4.91;96.39;99151.86;136731;1279;22370;-75
2023/11/12 04:03:25;;;;;;;12.90;9.40;;;;;;;4.92;96.09;99155.17;136753;1280;22460;-74
2023/11/12 04:06:28;;;;;;;11.80;10.00;;;;;;;4.90;96.14;99155.52;136627;1280;22366;-74
2023/11/12 04:09:28;;;;;;;11.60;9.90;;;;;;;4.87;95.90;99156.36;136797;1273;23516;-74
2023/11/12 04:12:29;;;;;;;15.30;9.60;;;;;;;4.84;95.34;99155.95;136792;1280;23275;-75
2023/11/12 04:15:32;;;;;;;12.20;9.20;;;;;;;4.82;95.65;99155.61;136707;1279;22433;-79
2023/11/12 04:18:36;;;;;;;12.30;8.90;;;;;;;4.82;95.57;99155.64;136615;1279;22322;-77
2023/11/12 04:21:37;;;;;;;11.50;8.90;;;;;;;4.80;95.64;99153.42;136778;1279;23050;-74
2023/11/12 04:24:38;;;;;;;11.70;9.40;;;;;;;4.78;95.34;99148.70;136770;1280;22257;-75
2023/11/12 04:27:39;;;;;;;12.60;9.40;;;;;;;4.77;95.16;99154.42;136644;1279;23631;-75
2023/11/12 04:30:42;;;;;;;14.90;9.40;;;;;;;4.73;95.04;99156.73;136770;1279;22458;-78
2023/11/12 04:33:42;;;;;;;11.30;9.50;;;;;;;4.68;95.05;99156.48;136624;1279;22160;-74
2023/11/12 04:36:44;;;;;;;10.20;9.10;;;;;;;4.66;95.14;99163.40;136627;1279;23386;-76
2023/11/12 04:39:44;;;;;;;13.00;8.80;;;;;;;4.67;95.34;99156.77;136663;1279;22394;-75
2023/11/12 04:42:46;;;;;;;11.80;9.90;;;;;;;4.67;94.97;99153.28;136649;1280;22408;-75
2023/11/12 04:45:47;;;;;;;11.50;9.40;;;;;;;4.67;95.00;99155.90;136758;1279;22457;-74
2023/11/12 04:48:48;;;;;;;12.00;9.30;;;;;;;4.66;95.06;99154.53;136783;1279;23263;-75
2023/11/12 04:51:51;;;;;;;;;;;;;;;4.67;95.15;99155.02;136564;1279;22486;-78
2023/11/12 04:54:52;;;;;;;10.80;8.40;;;;;;;4.66;95.06;99157.36;136620;1280;22472;-74
2023/11/12 04:58:01;;;;;;;15.30;9.60;;;;;;;4.67;95.06;99158.73;136616;1279;23369;-76
2023/11/12 05:01:03;;;;;;;10.00;8.10;;;;;;;4.66;95.22;99163.36;136633;1279;22475;-77
2023/11/12 05:04:05;;;;;;;13.10;9.10;;;;;;;4.65;94.92;99164.88;136746;1280;22501;-75
2023/11/12 05:07:06;;;;;;;12.50;9.10;;;;;;;4.65;95.26;99164.86;136743;1279;22394;-75
2023/11/12 05:10:08;;;;;;;11.30;9.30;;;;;;;4.64;95.10;99172.84;136635;1273;22477;-75
2023/11/12 05:13:09;;;;;;;10.70;8.50;;;;;;;4.64;95.48;99176.17;136735;1279;23076;-77
2023/11/12 05:16:09;;;;;;;9.80;8.50;;;;;;;4.63;95.36;99180.81;136634;1280;22501;-75
2023/11/12 05:19:10;;;;;;;11.00;8.50;;;;;;;4.62;95.46;99184.30;136635;1279;22387;-76
2023/11/12 05:22:10;;;;;;;10.90;8.60;;;;;;;4.62;95.62;99185.14;136755;1279;22411;-74
2023/11/12 05:25:12;;;;;;;16.80;9.10;;;;;;;4.64;95.30;99187.06;136761;1280;22395;-75
2023/11/12 05:28:13;;;;;;;14.00;8.80;;;;;;;4.66;95.55;99189.31;136640;1280;22436;-75
2023/11/12 05:31:13;;;;;;;12.30;8.30;;;;;;;4.67;95.28;99193.06;136642;1279;23232;-76
2023/11/12 05:34:14;;;;;;;11.10;8.70;;;;;;;4.67;95.42;99198.44;136782;1280;22457;-76
2023/11/12 05:37:16;;;;;;;11.60;8.60;;;;;;;4.67;95.49;99200.00;136657;1279;22365;-74
2023/11/12 05:40:16;;;;;;;11.10;8.80;;;;;;;4.68;95.58;99199.41;136657;1276;23418;-74
2023/11/12 05:43:17;;;;;;;12.00;8.60;;;;;;;4.67;95.59;99201.44;136763;1280;22374;-74
2023/11/12 05:46:18;;;;;;;10.60;9.40;;;;;;;4.65;95.58;99207.96;136731;1279;22506;-75
2023/11/12 05:49:19;;;;;;;;;;;;;;;4.64;95.68;99212.09;136768;1279;22411;-74
2023/11/12 05:52:25;;;;;;;13.60;10.00;;;;;;;4.62;95.62;99214.38;136746;1279;22807;-76
2023/11/12 05:55:29;;;;;;;12.10;8.90;;;;;;;4.60;95.57;99215.41;136754;1279;22414;-76
2023/11/12 05:58:32;;;;;;;15.90;9.70;;;;;;;4.61;95.61;99213.47;136642;1279;23203;-74
2023/11/12 06:01:32;;;;;;;13.40;9.80;;;;;;;4.61;95.32;99219.41;136686;1279;22391;-76
2023/11/12 06:04:33;;;;;;;14.80;9.70;;;;;;;4.60;95.38;99217.77;136775;1279;23269;-74
2023/11/12 06:07:33;;;;;;;15.80;10.80;;;;;;;4.62;95.58;99225.58;136773;1279;22429;-74
2023/11/12 06:10:34;;;;;;;14.70;10.10;;;;;;;4.63;95.65;99223.71;136759;1277;22466;-73
2023/11/12 06:13:35;;;;;;;;;;;;;;;4.65;95.55;99226.86;136757;1279;22412;-74
2023/11/12 06:16:35;;;;;;;14.00;10.40;;;;;;;4.67;95.48;99225.80;136756;1279;22377;-74
2023/11/12 06:19:36;;;;;;;17.60;10.80;;;;;;;4.69;95.84;99223.63;136653;1279;22394;-74
2023/11/12 06:22:37;;;;;;;15.70;10.50;;;;;;;4.72;95.58;99225.80;136786;1272;22456;-74
2023/11/12 06:25:37;;;;;;;17.10;11.30;;;;;;;4.75;95.72;99223.98;136675;1279;22456;-74
2023/11/12 06:28:38;;;;;;;15.20;11.00;;;;;;;4.78;95.67;99224.73;136787;1279;22443;-74
2023/11/12 06:31:39;;;;;;;;;;;;;;;4.81;95.70;99227.04;136811;1279;23209;-77
2023/11/12 06:34:39;;;;;;;15.20;11.70;;;;;;;4.81;95.66;99227.40;136655;1279;22385;-76
2023/11/12 06:37:40;;;;;;;17.90;12.20;;;;;;;4.83;95.58;99231.27;136765;1279;23174;-74
2023/11/12 06:40:40;;;;;;;18.60;13.20;;;;;;;4.83;95.71;99235.05;136736;1279;22418;-75
2023/11/12 06:43:41;;;;;;;15.10;11.60;;;;;;;4.84;95.58;99236.35;136749;1279;22432;-76
2023/11/12 06:46:45;;;;;;;15.50;12.00;;;;;;;4.85;95.54;99243.48;136664;1279;23169;-76
2023/11/12 06:49:46;;;;;;;14.40;12.10;;;;;;;4.85;95.32;99245.04;136646;1278;22448;-73
2023/11/12 06:52:47;;;;;;;16.30;11.60;;;;;;;4.87;95.44;99249.58;136756;1279;22415;-76
2023/11/12 06:55:49;;;;;;;17.90;11.90;;;;;;;4.91;95.40;99256.73;136583;1271;22368;-75
2023/11/12 06:58:53;;;;;;;16.70;10.90;;;;;;;4.94;95.72;99260.59;136677;1279;22467;-77
2023/11/12 07:01:54;;;;;;;16.10;12.00;;;;;;;5.01;95.83;99264.33;136553;1279;22875;-74
2023/11/12 07:05:04;;;;;;;17.70;12.50;;;;;;;5.07;95.74;99265.33;136751;1279;22447;-77
2023/11/12 07:08:09;;;;;;;15.90;11.00;;;;;;;5.14;95.66;99268.13;136640;1279;22458;-73
2023/11/12 07:11:12;;;;;;;14.70;11.00;;;;;;;5.17;95.36;99267.78;136545;1279;22243;-73
2023/11/12 07:14:13;;;;;;;16.10;10.80;;;;;;;5.21;95.41;99267.83;136607;1280;22571;-73
2023/11/12 07:17:13;;;;;;;17.40;11.70;;;;;;;5.24;95.44;99269.96;136613;1279;22452;-75
2023/11/12 07:20:14;;;;;;;13.10;10.50;;;;;;;5.25;95.29;99272.42;136734;1279;22496;-76
2023/11/12 07:23:15;;;;;;;16.90;12.00;;;;;;;5.29;95.47;99274.52;136740;1272;22353;-78
2023/11/12 07:26:16;;;;;;;17.00;11.00;;;;;;;5.31;95.45;99275.52;136731;1279;22368;-74
2023/11/12 07:29:16;;;;;;;17.10;10.90;;;;;;;5.31;95.10;99279.94;136724;1279;22523;-74
2023/11/12 07:32:20;;;;;;;13.70;10.40;;;;;;;5.30;95.12;99281.47;136716;1279;22461;-79
2023/11/12 07:35:26;;;;;;;15.50;9.90;;;;;;;5.31;95.08;99282.00;136665;1279;23545;-81
2023/11/12 07:38:26;;;;;;;13.20;9.90;;;;;;;5.33;95.19;99283.90;136689;1279;22465;-80
2023/11/12 07:41:32;;;;;;;15.50;10.80;;;;;;;5.35;95.23;99284.99;136748;1276;22236;-79
2023/11/12 07:44:39;;;;;;;14.30;10.80;;;;;;;5.34;95.02;99286.30;136737;1279;23426;-82
2023/11/12 07:47:40;;;;;;;16.10;11.30;;;;;;;5.32;94.96;99287.48;136664;1279;22452;-81
2023/11/12 07:50:41;;;;;;;13.60;10.80;;;;;;;5.31;94.76;99294.10;136740;1279;22377;-81
2023/11/12 07:53:43;;;;;;;13.20;10.90;;;;;;;5.33;94.85;99291.11;136748;1279;23621;-82
2023/11/12 07:56:44;;;;;;;15.00;10.90;;;;;;;5.32;94.68;99294.52;136737;1279;22462;-81
2023/11/12 07:59:45;;;;;;;15.80;11.60;;;;;;;5.32;94.71;99294.90;136587;1279;22459;-81
2023/11/12 08:02:47;;;;;;;15.60;11.00;;;;;;;5.32;94.59;99299.28;136731;1279;22368;-82
2023/11/12 08:05:48;;;;;;;14.10;10.20;;;;;;;5.32;94.72;99299.05;136702;1279;22401;-80
2023/11/12 08:08:54;;;;;;;14.30;10.90;;;;;;;5.34;94.69;99301.89;136740;1279;23117;-84
2023/11/12 08:12:03;;;;;;;16.30;9.20;;;;;;;5.35;94.40;99304.23;136751;1279;22403;-83
2023/11/12 08:15:11;;;;;;;15.00;10.10;;;;;;;5.35;94.58;99306.48;136729;1279;22389;-81
2023/11/12 08:18:11;;;;;;;11.00;8.60;;;;;;;5.37;94.72;99313.48;136642;1279;22362;-82
2023/11/12 08:21:12;;;;;;;12.00;9.30;;;;;;;5.39;94.73;99311.77;136706;1279;22437;-80
2023/11/12 08:24:13;;;;;;;;;;;;;;;5.42;94.54;99315.70;136724;1279;23202;-81
2023/11/12 08:27:25;;;;;;;11.80;8.70;;;;;;;5.42;94.52;99319.38;136709;1279;22465;-83
2023/11/12 08:30:29;;;;;;;13.60;9.80;;;;;;;5.45;94.42;99324.11;136720;1279;22614;-84
2023/11/12 08:33:35;;;;;;;14.40;10.10;;;;;;;5.48;94.43;99326.83;136647;1273;22453;-86
2023/11/12 08:36:37;;;;;;;14.40;10.20;;;;;;;5.49;94.26;99328.85;136698;1279;22366;-82
2023/11/12 08:39:38;;;;;;;18.10;12.00;;;;;;;5.50;94.48;99329.25;136743;1279;23097;-80
2023/11/12 08:42:46;;;;;;;;;;;;;;;5.51;94.15;99329.87;136654;1279;22394;-82
2023/11/12 08:45:54;;;;;;;13.90;9.30;;;;;;;5.52;94.34;99332.40;136731;1279;23216;-82
2023/11/12 08:49:08;;;;;;;15.20;10.40;;;;;;;5.53;94.23;99333.56;136719;1279;22466;-83
2023/11/12 08:52:14;;;;;;;14.60;10.40;;;;;;;5.55;94.36;99332.38;136748;1279;22358;-81
2023/11/12 08:55:18;;;;;;;14.60;10.10;;;;;;;5.57;94.18;99337.65;136759;1276;22378;-85
2023/11/12 08:58:21;;;;;;;12.60;9.80;;;;;;;5.58;94.16;99339.34;136736;1272;22394;-82
2023/11/12 09:01:22;;;;;;;14.00;10.00;;;;;;;5.60;94.17;99344.35;136756;1279;22498;-83
2023/11/12 09:04:25;;;;;;;14.10;10.50;;;;;;;5.59;93.88;99346.22;136767;1279;22446;-83
2023/11/12 09:07:29;;;;;;;14.20;11.30;;;;;;;5.61;94.21;99347.06;136629;1279;22458;-82
2023/11/12 09:10:33;;;;;;;14.40;10.30;;;;;;;5.65;94.02;99344.04;136776;1279;22464;-81
2023/11/12 09:13:35;;;;;;;13.60;10.00;;;;;;;5.68;93.79;99349.34;136746;1276;22191;-83
2023/11/12 09:16:42;;;;;;;16.80;10.20;;;;;;;5.71;94.11;99346.48;136714;1279;22439;-84
2023/11/12 09:19:43;;;;;;;15.20;10.60;;;;;;;5.73;94.18;99348.88;136556;1279;23244;-82
2023/11/12 09:22:44;;;;;;;12.90;9.80;;;;;;;5.75;93.80;99348.84;136526;1279;22435;-82
2023/11/12 09:25:52;;;;;;;16.00;9.10;;;;;;;5.77;93.88;99343.22;136638;1279;22471;-82
2023/11/12 09:28:59;;;;;;;19.40;10.20;;;;;;;5.77;93.71;99347.59;136524;1279;22487;-83
2023/11/12 09:32:31;;;;;;;12.50;9.70;;;;;;;5.76;93.46;99350.14;136568;1279;23678;-82
2023/11/12 09:35:39;;;;;;;14.50;9.90;;;;;;;5.79;93.64;99349.84;136735;1279;22360;-83
2023/11/12 09:38:40;;;;;;;20.40;9.30;;;;;;;5.83;93.52;99344.38;136568;1279;23064;-85
2023/11/12 09:42:09;;;;;;;13.00;9.10;;;;;;;5.87;93.56;99347.85;136739;1279;22265;-82
2023/11/12 09:45:11;;;;;;;14.50;11.00;;;;;;;5.89;93.47;99345.67;136724;1278;22379;-85
2023/11/12 09:48:40;;;;;;;11.50;8.70;;;;;;;5.92;93.40;99344.19;136757;1279;22403;-83
2023/11/12 09:51:41;;;;;;;12.40;10.30;;;;;;;5.93;93.09;99343.36;136755;1279;22416;-82
2023/11/12 09:54:47;;;;;;;22.50;14.10;;;;;;;5.94;92.81;99343.77;136740;1279;22319;-82
2023/11/12 09:58:08;;;;;;;21.30;13.00;;;;;;;5.98;92.90;99343.08;136657;1279;22409;-84
2023/11/12 10:01:13;;;;;;;22.10;12.80;;;;;;;6.05;92.99;99339.52;136411;1284;22469;-83
2023/11/12 10:04:33;;;;;;;18.10;12.00;;;;;;;6.12;92.78;99340.95;136311;1284;22427;-83
2023/11/12 10:07:40;;;;;;;15.90;10.50;;;;;;;6.18;92.71;99333.96;136120;1287;22431;-83
2023/11/12 10:10:44;;;;;;;17.60;12.00;;;;;;;6.23;92.28;99333.80;136124;1287;22444;-83
2023/11/12 10:13:52;;;;;;;23.10;13.40;;;;;;;6.28;92.32;99330.84;136063;1283;22463;-83
2023/11/12 10:17:23;;;;;;;15.40;10.40;;;;;;;6.35;92.31;99329.82;136011;1287;23470;-84
2023/11/12 10:20:25;;;;;;;;;;;;;;;6.43;92.00;99329.32;136120;1287;22466;-83
2023/11/12 10:23:26;;;;;;;20.70;12.10;;;;;;;6.49;91.97;99330.95;136116;1287;22597;-86
2023/11/12 10:26:35;;;;;;;18.80;11.50;;;;;;;6.49;91.33;99324.43;136212;1287;23223;-84
2023/11/12 10:29:44;;;;;;;13.30;10.10;;;;;;;6.48;91.22;99323.27;135892;1287;225900;-82
2023/11/12 10:32:51;;;;;;;18.10;11.70;;;;;;;6.50;91.40;99328.25;136358;1282;23751;-84
2023/11/12 10:35:55;;;;;;;16.20;10.80;;;;;;;6.50;91.10;99326.80;136502;1282;22518;-82
2023/11/12 10:39:11;;;;;;;12.50;9.60;;;;;;;6.53;91.13;99327.21;136488;1282;22460;-83
2023/11/12 10:42:26;;;;;;;11.30;8.10;;;;;;;6.57;91.00;99325.34;136399;1277;22439;-84
2023/11/12 10:45:31;;;;;;;14.70;9.20;;;;;;;6.59;90.70;99330.45;136688;1279;23019;-83
2023/11/12 10:48:37;;;;;;;10.20;8.70;;;;;;;6.62;90.73;99332.58;136764;1279;23003;-82
2023/11/12 10:51:41;;;;;;;11.50;8.90;;;;;;;6.64;90.29;99327.61;136642;1279;22428;-83
2023/11/12 10:54:43;;;;;;;15.90;9.90;;;;;;;6.63;90.10;99332.45;136781;1279;22463;-84
2023/11/12 10:57:46;;;;;;;13.80;10.50;;;;;;;6.65;90.19;99330.67;136597;1279;22373;-83
2023/11/12 11:00:48;;;;;;;13.30;9.50;;;;;;;6.70;90.24;99324.50;136772;1279;23466;-82
2023/11/12 11:03:52;;;;;;;13.40;9.80;;;;;;;6.71;89.85;99320.90;136642;1279;23164;-82
2023/11/12 11:06:52;;;;;;;13.90;10.00;;;;;;;6.71;89.85;99321.77;136759;1279;22382;-82
2023/11/12 11:09:54;;;;;;;12.60;9.40;;;;;;;6.74;89.74;99320.09;136773;1279;22434;-82
2023/11/12 11:12:55;;;;;;;15.60;9.40;;;;;;;6.75;89.69;99321.15;136657;1275;23175;-83
2023/11/12 11:15:59;;;;;;;13.30;9.20;;;;;;;6.73;88.97;99321.21;136773;1279;22431;-86
2023/11/12 11:18:59;;;;;;;11.90;7.40;;;;;;;6.71;89.00;99320.05;136624;1279;22389;-83
2023/11/12 11:22:32;;;;;;;9.70;7.80;;;;;;;6.71;88.99;99319.55;136753;1279;22558;-83
2023/11/12 11:25:32;;;;;;;10.40;8.50;;;;;;;6.73;89.20;99325.04;136738;1279;22448;-83
2023/11/12 11:28:34;;;;;;;9.20;8.00;;;;;;;6.77;89.02;99325.08;136749;1279;22466;-83
2023/11/12 11:31:40;;;;;;;10.00;8.30;;;;;;;6.78;88.91;99329.13;136683;1279;22451;-84
2023/11/12 11:34:45;;;;;;;14.30;9.60;;;;;;;6.81;88.99;99332.20;136630;1278;22339;-82
2023/11/12 11:38:05;;;;;;;12.30;8.20;;;;;;;6.86;88.95;99329.02;136743;1272;22394;-84
2023/11/12 11:41:10;;;;;;;10.50;8.40;;;;;;;6.90;88.60;99324.21;136749;1279;22466;-81
2023/11/12 11:44:31;;;;;;;13.80;8.60;;;;;;;6.93;88.32;99324.86;136629;1279;22464;-82
2023/11/12 11:47:32;;;;;;;14.60;8.80;;;;;;;7.00;88.12;99328.44;136769;1279;22427;-83
2023/11/12 11:50:37;;;;;;;12.30;7.80;;;;;;;7.07;88.32;99323.08;136743;1279;22451;-82
2023/11/12 11:53:38;;;;;;;10.20;7.50;;;;;;;7.19;88.34;99327.11;136630;1279;22417;-83
2023/11/12 11:56:45;;;;;;;8.60;6.90;;;;;;;7.29;88.01;99324.31;136648;1279;23194;-84
2023/11/12 11:59:48;;;;;;;13.40;7.50;;;;;;;7.34;87.39;99320.55;136759;1279;22400;-83
2023/11/12 12:02:49;;;;;;;10.80;7.90;;;;;;;7.38;87.18;99322.53;136733;1279;23159;-85
2023/11/12 12:05:59;;;;;;;10.40;8.00;;;;;;;7.39;86.79;99322.33;136747;1279;22402;-82
2023/11/12 12:09:00;;;;;;;11.40;7.20;;;;;;;7.39;86.73;99323.54;136754;1279;22480;-81
2023/11/12 12:12:08;;;;;;;12.70;8.40;;;;;;;7.36;86.36;99325.06;136753;1279;22467;-83
2023/11/12 12:15:17;;;;;;;16.80;11.10;;;;;;;7.31;86.05;99325.30;136745;1278;22464;-82
2023/11/12 12:18:19;;;;;;;16.60;10.70;;;;;;;7.29;86.25;99324.63;136613;1279;22468;-83
2023/11/12 12:21:30;;;;;;;12.90;9.80;;;;;;;7.30;86.41;99323.15;136746;1279;22453;-82
2023/11/12 12:24:36;;;;;;;12.90;9.10;;;;;;;7.31;85.96;99322.69;136592;1279;23093;-82
2023/11/12 12:27:50;;;;;;;12.20;8.30;;;;;;;7.28;85.90;99328.79;136727;1279;22454;-83
2023/11/12 12:30:55;;;;;;;10.50;7.20;;;;;;;7.24;85.46;99330.20;136644;1279;22446;-82
2023/11/12 12:34:29;;;;;;;10.70;8.40;;;;;;;7.22;85.83;99332.08;136640;1279;22514;-85
2023/11/12 12:37:32;;;;;;;13.50;8.10;;;;;;;7.25;85.77;99337.92;136505;1282;23455;-84
2023/11/12 12:40:33;;;;;;;14.70;7.30;;;;;;;7.23;85.56;99340.17;136437;1282;22289;-84
2023/11/12 12:44:18;;;;;;;17.70;7.20;;;;;;;7.22;85.43;99339.48;136419;1280;22305;-82
2023/11/12 12:47:35;;;;;;;10.00;6.50;;;;;;;7.20;85.25;99338.79;136230;1286;23154;-82
2023/11/12 12:50:39;;;;;;;11.40;8.00;;;;;;;7.19;85.39;99343.11;136234;1286;22595;-83
2023/11/12 12:53:45;;;;;;;13.00;7.80;;;;;;;7.17;85.30;99342.16;136307;1285;22379;-83
2023/11/12 12:56:52;;;;;;;13.10;8.80;;;;;;;7.17;85.50;99346.23;136312;1286;23318;-81
2023/11/12 12:59:53;;;;;;;14.60;9.50;;;;;;;7.17;85.28;99345.24;136191;1284;23414;-85
2023/11/12 13:02:55;;;;;;;14.60;9.50;;;;;;;7.14;85.16;99343.66;136290;1286;22470;-83
2023/11/12 13:06:08;;;;;;;14.50;9.40;;;;;;;7.10;84.64;99342.98;136298;1286;22454;-84
2023/11/12 13:09:26;;;;;;;14.80;9.30;;;;;;;7.09;84.92;99344.27;136219;1284;22550;-84
2023/11/12 13:12:33;;;;;;;10.40;8.40;;;;;;;7.12;85.28;99346.30;136390;1284;22482;-85
2023/11/12 13:15:58;;;;;;;13.00;9.70;;;;;;;7.15;85.23;99344.21;136375;1281;23500;-82
2023/11/12 13:19:00;;;;;;;16.90;9.90;;;;;;;7.19;84.86;99349.24;136670;1279;22447;-86
2023/11/12 13:22:04;;;;;;;16.30;10.70;;;;;;;7.21;84.86;99347.14;136744;1279;22423;-82
2023/11/12 13:25:07;;;;;;;17.20;9.30;;;;;;;7.23;84.57;99352.36;136780;1279;22454;-82
2023/11/12 13:28:11;;;;;;;12.60;8.60;;;;;;;7.22;84.47;99354.79;136763;1279;23200;-81
2023/11/12 13:31:14;;;;;;;12.40;8.70;;;;;;;7.22;84.64;99353.89;136631;1279;22608;-83
2023/11/12 13:34:16;;;;;;;15.30;6.90;;;;;;;7.23;84.46;99357.25;136784;1279;22258;-83
2023/11/12 13:37:18;;;;;;;9.50;6.80;;;;;;;7.22;84.31;99360.35;136802;1279;22389;-82
2023/11/12 13:40:26;;;;;;;8.70;6.90;;;;;;;7.20;84.30;99363.38;136787;1279;23148;-86
2023/11/12 13:43:28;;;;;;;11.10;6.50;;;;;;;7.18;84.16;99369.06;136789;1279;22442;-81
2023/11/12 13:46:31;;;;;;;7.50;6.00;;;;;;;7.14;84.01;99380.48;136624;1279;22510;-81
2023/11/12 13:49:34;;;;;;;8.10;6.20;;;;;;;7.11;84.11;99381.02;136806;1279;22444;-82
2023/11/12 13:52:36;;;;;;;9.70;6.40;;;;;;;7.09;84.18;99387.53;136775;1279;23178;-82
2023/11/12 13:55:41;;;;;;;10.00;5.80;;;;;;;7.08;84.32;99394.20;136772;1279;22439;-86
2023/11/12 13:58:42;;;;;;;10.80;5.90;;;;;;;7.07;84.09;99397.10;136588;1279;22514;-82
2023/11/12 14:01:45;;;;;;;11.40;8.10;;;;;;;7.05;84.01;99399.80;136803;1279;22271;-84
2023/11/12 14:04:49;;;;;;;11.70;7.50;;;;;;;7.03;84.09;99400.52;136790;1279;22380;-82
2023/11/12 14:07:50;;;;;;;10.40;6.90;;;;;;;7.00;84.11;99404.21;136774;1279;22395;-83
2023/11/12 14:10:50;;;;;;;8.60;5.70;;;;;;;6.96;84.05;99407.20;136640;1279;22454;-82
2023/11/12 14:13:51;;;;;;;6.30;5.40;;;;;;;6.92;83.63;99406.92;136799;1279;22445;-81
2023/11/12 14:16:57;;;;;;;6.10;4.80;;;;;;;6.89;83.71;99408.66;136793;1272;22648;-85